.
WxDataArchive / Data Records for 2013-12-10
2013-12-09 December 2013 2013-12-11

Data Records for Tuesday, 10 December 2013

Time	Temp	Chill	HIndex	Humid	Dewpt	 Wind 	HiWind	WindDir	Rain 	Barom 
-----	----	-----	------	-----	-----	------	------	-------	-----	----- 
00:00	17.8	17.8	17.8	63	7.4	1	2	248	0.00	30.187 
00:05	17.8	17.8	17.8	63	7.4	1	4	248	0.00	30.187 
00:10	17.8	17.8	17.8	63	7.4	0	2	248	0.00	30.187 
00:15	17.8	17.8	17.8	64	7.7	0	3	248	0.00	30.189 
00:20	17.8	17.8	17.8	64	7.7	1	3	248	0.00	30.189 
00:25	17.7	17.7	17.7	65	8.0	1	4	248	0.00	30.189 
00:30	17.7	17.7	17.7	65	8.0	0	3	248	0.00	30.193 
00:35	17.7	17.7	17.7	64	7.6	1	4	248	0.00	30.193 
00:40	17.5	17.5	17.5	64	7.4	1	3	248	0.00	30.193 
00:45	17.3	17.3	17.3	63	6.9	1	4	248	0.00	30.203 
00:50	17.3	17.3	17.3	63	6.9	1	3	248	0.00	30.203 
00:55	17.3	17.3	17.3	63	6.9	1	4	248	0.00	30.203 
01:00	17.3	17.3	17.3	64	7.2	1	3	248	0.00	30.203 
01:05	17.2	17.2	17.2	63	6.8	2	5	248	0.00	30.203 
01:10	17.2	17.2	17.2	63	6.8	1	5	248	0.00	30.203 
01:15	17.2	17.2	17.2	63	6.8	1	4	248	0.00	30.203 
01:20	17.2	17.2	17.2	63	6.8	1	3	270	0.00	30.203 
01:25	17.2	17.2	17.2	64	7.1	1	3	270	0.00	30.203 
01:30	17.0	17.0	17.0	64	7.0	1	3	270	0.00	30.199 
01:35	17.0	17.0	17.0	65	7.3	1	5	270	0.00	30.199 
01:40	17.0	17.0	17.0	65	7.3	0	2	248	0.00	30.199 
01:45	16.9	16.9	16.9	65	7.2	1	4	248	0.00	30.198 
01:50	16.9	16.9	16.9	64	6.9	1	3	248	0.00	30.198 
01:55	16.7	16.7	16.7	64	6.7	2	4	248	0.00	30.198 
02:00	16.7	16.7	16.7	63	6.3	1	3	248	0.00	30.195 
02:05	16.7	16.7	16.7	64	6.7	1	3	248	0.00	30.195 
02:10	16.7	16.7	16.7	64	6.7	1	3	248	0.00	30.195 
02:15	16.5	16.5	16.5	65	6.8	1	4	248	0.00	30.190 
02:20	16.5	16.5	16.5	65	6.8	1	3	248	0.00	30.190 
02:25	16.5	16.5	16.5	65	6.8	1	2	248	0.00	30.190 
02:30	16.5	16.5	16.5	64	6.5	1	4	292	0.00	30.193 
02:35	16.4	16.4	16.4	64	6.4	1	4	270	0.00	30.193 
02:40	16.4	16.4	16.4	65	6.7	1	3	248	0.00	30.193 
02:45	16.4	16.4	16.4	65	6.7	1	3	248	0.00	30.200 
02:50	16.4	16.4	16.4	65	6.7	0	2	248	0.00	30.200 
02:55	16.4	16.4	16.4	66	7.1	0	2	248	0.00	30.200 
03:00	16.2	16.2	16.2	65	6.5	1	3	248	0.00	30.196 
03:05	16.1	16.1	16.1	61	5.1	1	2	248	0.00	30.196 
03:10	15.9	15.9	15.9	59	4.1	0	3	248	0.00	30.196 
03:15	15.9	15.9	15.9	59	4.1	0	3	248	0.00	30.189 
03:20	15.7	15.7	15.7	58	3.6	0	2	248	0.00	30.189 
03:25	15.7	15.7	15.7	59	4.0	0	1	248	0.00	30.189 
03:30	15.6	15.6	15.6	59	3.9	0	2	248	0.00	30.185 
03:35	15.6	15.6	15.6	60	4.2	0	1	248	0.00	30.185 
03:40	15.4	15.4	15.4	62	4.7	0	2	248	0.00	30.185 
03:45	15.4	15.4	15.4	64	5.4	0	2	248	0.00	30.177 
03:50	15.4	15.4	15.4	65	5.8	0	2	248	0.00	30.177 
03:55	15.2	15.2	15.2	66	5.9	0	4	248	0.00	30.177 
04:00	15.1	15.1	15.1	66	5.8	0	2	248	0.00	30.178 
04:05	14.9	14.9	14.9	66	5.6	0	3	248	0.00	30.178 
04:10	14.8	14.8	14.8	66	5.5	0	2	248	0.00	30.178 
04:15	14.6	14.6	14.6	65	5.0	0	2	248	0.00	30.172 
04:20	14.4	14.4	14.4	64	4.5	0	2	248	0.00	30.172 
04:25	14.3	14.3	14.3	62	3.7	1	4	248	0.00	30.172 
04:30	14.1	14.1	14.1	62	3.5	1	3	248	0.00	30.174 
04:35	14.0	14.0	14.0	62	3.4	0	4	248	0.00	30.174 
04:40	13.8	13.8	13.8	62	3.2	1	3	248	0.00	30.174 
04:45	13.6	13.6	13.6	62	3.0	0	2	248	0.00	30.175 
04:50	13.5	13.5	13.5	63	3.3	0	2	248	0.00	30.175 
04:55	13.3	13.3	13.3	63	3.1	1	3	248	0.00	30.175 
05:00	13.1	13.1	13.1	63	2.9	0	2	248	0.00	30.175 
05:05	12.9	12.9	12.9	63	2.7	1	3	248	0.00	30.175 
05:10	12.8	12.8	12.8	63	2.6	1	3	248	0.00	30.175 
05:15	12.6	12.6	12.6	63	2.4	1	3	248	0.00	30.176 
05:20	12.6	12.6	12.6	63	2.4	0	1	248	0.00	30.176 
05:25	12.4	12.4	12.4	63	2.2	0	1	248	0.00	30.176 
05:30	12.3	12.3	12.3	64	2.5	1	2	248	0.00	30.180 
05:35	12.1	12.1	12.1	64	2.3	1	3	248	0.00	30.180 
05:40	12.1	12.1	12.1	65	2.6	0	2	248	0.00	30.180 
05:45	11.9	11.9	11.9	65	2.4	1	3	248	0.00	30.183 
05:50	11.7	11.7	11.7	65	2.2	1	4	248	0.00	30.183 
05:55	11.6	11.6	11.6	64	1.8	2	4	270	0.00	30.183 
06:00	11.4	11.4	11.4	64	1.6	2	6	248	0.00	30.183 
06:05	11.2	11.2	11.2	64	1.4	1	3	270	0.00	30.183 
06:10	10.9	10.9	10.9	65	1.5	1	3	270	0.00	30.183 
06:15	10.7	10.7	10.7	65	1.3	1	3	270	0.00	30.183 
06:20	10.5	10.5	10.5	64	0.8	1	3	270	0.00	30.183 
06:25	10.4	10.4	10.4	65	1.0	0	3	270	0.00	30.183 
06:30	10.2	10.2	10.2	65	0.8	0	2	270	0.00	30.183 
06:35	10.0	10.0	10.0	65	0.6	0	2	270	0.00	30.183 
06:40	10.0	10.0	10.0	66	0.9	0	2	270	0.00	30.183 
06:45	9.9	9.9	9.9	66	0.8	0	1	270	0.00	30.178 
06:50	9.7	9.7	9.7	67	1.0	0	0	---	0.00	30.178 
06:55	9.5	9.5	9.5	68	1.1	0	2	270	0.00	30.178 
07:00	9.3	9.3	9.3	68	0.9	0	0	---	0.00	30.172 
07:05	9.3	9.3	9.3	69	1.2	0	1	270	0.00	30.172 
07:10	9.2	9.2	9.2	68	0.8	0	1	270	0.00	30.172 
07:15	9.0	9.0	9.0	68	0.6	0	2	270	0.00	30.178 
07:20	9.0	9.0	9.0	67	0.3	0	1	270	0.00	30.178 
07:25	8.8	8.8	8.8	67	0.1	0	1	270	0.00	30.178 
07:30	8.6	8.6	8.6	67	-0.1	0	1	270	0.00	30.184 
07:35	8.6	8.6	8.6	67	-0.1	0	1	270	0.00	30.184 
07:40	8.4	8.4	8.4	68	0.0	0	1	270	0.00	30.184 
07:45	8.3	8.3	8.3	69	0.3	0	0	---	0.00	30.171 
07:50	8.1	8.1	8.1	69	0.1	0	2	270	0.00	30.171 
07:55	8.1	8.1	8.1	69	0.1	0	1	270	0.00	30.171 
08:00	8.1	8.1	8.1	69	0.1	0	1	270	0.00	30.171 
08:05	8.1	8.1	8.1	69	0.1	0	1	270	0.00	30.171 
08:10	7.9	7.9	7.9	69	-0.1	0	3	270	0.00	30.171 
08:15	7.9	7.9	7.9	69	-0.1	0	2	270	0.00	30.175 
08:20	8.1	8.1	8.1	68	-0.2	0	1	270	0.00	30.175 
08:25	8.1	8.1	8.1	68	-0.2	0	1	270	0.00	30.175 
08:30	8.3	8.3	8.3	68	-0.0	0	1	270	0.00	30.173 
08:35	8.3	8.3	8.3	68	-0.0	0	2	270	0.00	30.173 
08:40	8.4	8.4	8.4	67	-0.3	0	1	270	0.00	30.173 
08:45	8.4	8.4	8.4	67	-0.3	1	3	270	0.00	30.178 
08:50	8.6	8.6	8.6	66	-0.4	0	2	270	0.00	30.178 
08:55	8.8	8.8	8.8	66	-0.2	0	3	270	0.00	30.178 
09:00	8.8	8.8	8.8	65	-0.5	1	5	248	0.00	30.172 
09:05	9.0	9.0	9.0	65	-0.3	1	4	248	0.00	30.172 
09:10	9.3	9.3	9.3	64	-0.4	1	3	270	0.00	30.172 
09:15	9.7	9.7	9.7	64	0.0	0	2	248	0.00	30.161 
09:20	10.0	10.0	10.0	63	-0.0	0	2	248	0.00	30.161 
09:25	10.4	10.4	10.4	63	0.3	0	2	248	0.00	30.161 
09:30	10.7	10.7	10.7	62	0.3	0	3	248	0.00	30.151 
09:35	11.1	11.1	11.1	61	0.3	0	3	248	0.00	30.151 
09:40	11.4	11.4	11.4	60	0.2	1	3	248	0.00	30.151 
09:45	11.7	11.7	11.7	59	0.2	1	4	248	0.00	30.151 
09:50	12.1	12.1	12.1	58	0.2	1	4	248	0.00	30.151 
09:55	12.6	12.6	12.6	57	0.3	1	5	248	0.00	30.151 
10:00	12.6	12.6	12.6	57	0.3	1	4	270	0.00	30.149 
10:05	12.9	12.9	12.9	57	0.6	1	3	270	0.00	30.149 
10:10	13.5	13.5	13.5	57	1.1	1	5	270	0.00	30.149 
10:15	13.6	13.6	13.6	56	0.9	1	5	248	0.00	30.139 
10:20	14.1	14.1	14.1	57	1.7	1	5	270	0.00	30.139 
10:25	14.4	14.4	14.4	57	2.0	2	7	248	0.00	30.139 
10:30	14.9	14.9	14.9	57	2.5	1	5	248	0.00	30.136 
10:35	15.4	15.4	15.4	56	2.5	1	5	225	0.00	30.136 
10:40	15.4	15.4	15.4	53	1.4	2	6	248	0.00	30.136 
10:45	15.4	15.4	15.4	54	1.8	1	4	248	0.00	30.135 
10:50	15.4	15.4	15.4	54	1.8	2	7	248	0.00	30.135 
10:55	15.6	15.6	15.6	54	2.0	2	7	248	0.00	30.135 
11:00	15.7	15.7	15.7	54	2.0	2	6	248	0.00	30.130 
11:05	16.1	16.1	16.1	55	2.8	2	5	248	0.00	30.130 
11:10	16.4	16.4	16.4	55	3.1	2	6	248	0.00	30.130 
11:15	16.9	16.9	16.9	55	3.6	1	5	248	0.00	30.120 
11:20	17.3	17.3	17.3	55	3.9	1	5	248	0.00	30.120 
11:25	17.7	17.7	17.7	55	4.3	2	5	248	0.00	30.120 
11:30	18.1	18.1	18.1	54	4.3	2	5	248	0.00	30.116 
11:35	18.6	18.6	18.6	54	4.8	2	5	248	0.00	30.116 
11:40	18.9	18.9	18.9	51	3.8	3	7	248	0.00	30.116 
11:45	19.1	19.1	19.1	51	4.0	2	7	248	0.00	30.098 
11:50	19.2	19.2	19.2	51	4.1	2	10	248	0.00	30.098 
11:55	19.5	19.5	19.5	51	4.4	2	9	248	0.00	30.098 
12:00	19.9	19.9	19.9	49	3.9	3	7	248	0.00	30.081 
12:05	20.2	14.4	20.2	49	4.1	4	10	270	0.00	30.081 
12:10	20.5	14.8	20.5	48	4.0	4	11	248	0.00	30.081 
12:15	20.8	15.1	20.8	46	3.3	4	18	248	0.00	30.076 
12:20	21.3	21.3	21.3	47	4.2	3	7	248	0.00	30.076 
12:25	21.9	21.9	21.9	48	5.3	3	10	248	0.00	30.076 
12:30	22.2	16.8	22.2	46	4.6	4	12	248	0.00	30.080 
12:35	22.4	17.0	22.4	46	4.8	4	13	248	0.00	30.080 
12:40	22.4	15.8	22.4	47	5.3	5	15	248	0.00	30.080 
12:45	22.5	17.1	22.5	46	4.9	4	10	248	0.00	30.078 
12:50	23.0	17.7	23.0	47	5.8	4	10	248	0.00	30.078 
12:55	23.5	23.5	23.5	47	6.3	3	10	248	0.00	30.078 
13:00	23.5	17.1	23.5	45	5.3	5	12	248	0.00	30.064 
13:05	23.5	16.1	23.5	47	6.3	6	17	270	0.00	30.064 
13:10	23.6	17.2	23.6	46	5.9	5	11	248	0.00	30.064 
13:15	23.6	23.6	23.6	47	6.4	3	11	248	0.00	30.055 
13:20	23.6	17.2	23.6	47	6.4	5	15	248	0.00	30.055 
13:25	23.8	16.5	23.8	48	7.0	6	16	248	0.00	30.055 
13:30	23.8	18.6	23.8	48	7.0	4	15	248	0.00	30.062 
13:35	23.8	18.6	23.8	49	7.5	4	9	248	0.00	30.062 
13:40	23.8	17.4	23.8	49	7.5	5	16	248	0.00	30.062 
13:45	23.8	17.4	23.8	50	7.9	5	14	248	0.00	30.063 
13:50	24.1	24.1	24.1	51	8.6	3	9	248	0.00	30.063 
13:55	24.5	18.3	24.5	50	8.6	5	13	270	0.00	30.063 
14:00	24.4	18.1	24.4	51	8.9	5	16	270	0.00	30.057 
14:05	24.7	19.6	24.7	51	9.2	4	11	248	0.00	30.057 
14:10	25.0	20.0	25.0	52	9.9	4	12	248	0.00	30.057 
14:15	25.4	25.4	25.4	52	10.3	3	7	248	0.00	30.065 
14:20	25.4	25.4	25.4	51	9.8	3	7	248	0.00	30.065 
14:25	25.3	20.3	25.3	51	9.7	4	11	248	0.00	30.065 
14:30	25.1	19.0	25.1	52	10.0	5	15	270	0.00	30.063 
14:35	24.8	18.6	24.8	52	9.7	5	13	270	0.00	30.063 
14:40	24.8	19.8	24.8	52	9.7	4	11	248	0.00	30.063 
14:45	24.8	18.6	24.8	52	9.7	5	11	270	0.00	30.073 
14:50	24.8	19.8	24.8	52	9.7	4	10	248	0.00	30.073 
14:55	24.8	19.8	24.8	53	10.1	4	10	270	0.00	30.073 
15:00	25.0	20.0	25.0	52	9.9	4	10	248	0.00	30.076 
15:05	25.0	18.9	25.0	52	9.9	5	10	270	0.00	30.076 
15:10	25.0	20.0	25.0	53	10.3	4	10	270	0.00	30.076 
15:15	25.0	20.0	25.0	53	10.3	4	10	248	0.00	30.080 
15:20	25.3	20.3	25.3	52	10.2	4	12	248	0.00	30.080 
15:25	25.1	19.0	25.1	51	9.5	5	11	270	0.00	30.080 
15:30	24.8	18.6	24.8	51	9.3	5	15	248	0.00	30.091 
15:35	24.7	18.5	24.7	51	9.2	5	10	248	0.00	30.091 
15:40	24.4	18.1	24.4	51	8.9	5	13	270	0.00	30.091 
15:45	24.2	19.1	24.2	51	8.7	4	11	270	0.00	30.097 
15:50	24.1	24.1	24.1	52	9.1	3	10	270	0.00	30.097 
15:55	24.1	19.0	24.1	52	9.1	4	12	270	0.00	30.097 
16:00	24.2	17.9	24.2	52	9.1	5	13	270	0.00	30.104 
16:05	24.4	19.3	24.4	52	9.3	4	9	270	0.00	30.104 
16:10	24.4	19.3	24.4	52	9.3	4	11	270	0.00	30.104 
16:15	24.5	19.4	24.5	52	9.4	4	9	270	0.00	30.113 
16:20	24.5	19.4	24.5	51	9.0	4	11	270	0.00	30.113 
16:25	24.4	19.3	24.4	51	8.9	4	8	248	0.00	30.113 
16:30	24.2	17.9	24.2	52	9.1	5	10	270	0.00	30.126 
16:35	24.1	24.1	24.1	53	9.5	3	9	270	0.00	30.126 
16:40	23.9	18.7	23.9	54	9.7	4	12	248	0.00	30.126 
16:45	23.9	23.9	23.9	54	9.7	3	9	270	0.00	30.132 
16:50	23.8	18.6	23.8	54	9.6	4	9	270	0.00	30.132 
16:55	23.8	23.8	23.8	53	9.2	3	8	248	0.00	30.132 
17:00	23.6	23.6	23.6	53	9.0	3	7	270	0.00	30.140 
17:05	23.5	23.5	23.5	53	8.9	3	10	270	0.00	30.140 
17:10	23.3	23.3	23.3	52	8.3	3	10	270	0.00	30.140 
17:15	23.3	18.0	23.3	52	8.3	4	11	270	0.00	30.151 
17:20	23.2	23.2	23.2	52	8.2	3	7	270	0.00	30.151 
17:25	23.0	23.0	23.0	52	8.0	3	7	270	0.00	30.151 
17:30	22.9	17.6	22.9	53	8.4	4	10	270	0.00	30.163 
17:35	22.7	22.7	22.7	53	8.2	2	4	270	0.00	30.163 
17:40	22.7	22.7	22.7	53	8.2	2	5	248	0.00	30.163 
17:45	22.5	22.5	22.5	54	8.4	2	5	270	0.00	30.164 
17:50	22.5	22.5	22.5	54	8.4	3	6	270	0.00	30.164 
17:55	22.5	22.5	22.5	54	8.4	3	12	270	0.00	30.164 
18:00	22.4	22.4	22.4	55	8.7	3	5	270	0.00	30.168 
18:05	22.4	22.4	22.4	55	8.7	2	5	248	0.00	30.168 
18:10	22.2	22.2	22.2	55	8.5	3	9	248	0.00	30.168 
18:15	22.2	22.2	22.2	56	8.9	2	6	248	0.00	30.182 
18:20	22.1	22.1	22.1	56	8.8	3	5	248	0.00	30.182 
18:25	21.9	21.9	21.9	56	8.6	3	6	248	0.00	30.182 
18:30	21.9	21.9	21.9	56	8.6	2	5	248	0.00	30.187 
18:35	21.8	21.8	21.8	56	8.5	3	6	248	0.00	30.187 
18:40	21.8	21.8	21.8	56	8.5	3	7	248	0.00	30.187 
18:45	21.8	21.8	21.8	57	8.9	3	6	248	0.00	30.195 
18:50	21.6	21.6	21.6	58	9.1	2	7	248	0.00	30.195 
18:55	21.6	21.6	21.6	58	9.1	3	8	248	0.00	30.195 
19:00	21.6	21.6	21.6	58	9.1	2	6	270	0.00	30.204 
19:05	21.6	21.6	21.6	58	9.1	2	6	270	0.00	30.204 
19:10	21.4	21.4	21.4	58	8.9	3	7	248	0.00	30.204 
19:15	21.4	21.4	21.4	58	8.9	3	7	248	0.00	30.214 
19:20	21.4	21.4	21.4	58	8.9	3	6	248	0.00	30.214 
19:25	21.4	21.4	21.4	57	8.6	3	7	270	0.00	30.214 
19:30	21.4	21.4	21.4	58	8.9	3	6	270	0.00	30.213 
19:35	21.3	21.3	21.3	58	8.9	3	5	248	0.00	30.213 
19:40	21.3	21.3	21.3	58	8.9	2	6	248	0.00	30.213 
19:45	21.1	21.1	21.1	58	8.7	2	6	248	0.00	30.215 
19:50	21.0	21.0	21.0	58	8.6	3	6	248	0.00	30.215 
19:55	21.0	21.0	21.0	59	9.0	2	6	248	0.00	30.215 
20:00	20.8	20.8	20.8	59	8.8	2	7	248	0.00	30.216 
20:05	20.8	20.8	20.8	59	8.8	2	5	248	0.00	30.216 
20:10	20.6	20.6	20.6	60	8.9	1	3	248	0.00	30.216 
20:15	20.5	20.5	20.5	60	8.9	1	4	248	0.00	30.217 
20:20	20.3	20.3	20.3	60	8.7	1	3	248	0.00	30.217 
20:25	20.3	20.3	20.3	60	8.7	2	5	248	0.00	30.217 
20:30	20.2	20.2	20.2	60	8.6	2	6	248	0.00	30.217 
20:35	20.2	20.2	20.2	59	8.2	2	5	270	0.00	30.217 
20:40	20.2	20.2	20.2	59	8.2	2	7	270	0.00	30.217 
20:45	20.0	20.0	20.0	59	8.0	2	6	248	0.00	30.228 
20:50	20.0	20.0	20.0	59	8.0	2	4	248	0.00	30.228 
20:55	19.9	19.9	19.9	59	7.9	2	5	248	0.00	30.228 
21:00	19.7	19.7	19.7	59	7.7	1	4	248	0.00	30.232 
21:05	19.7	19.7	19.7	59	7.7	2	5	248	0.00	30.232 
21:10	19.7	19.7	19.7	59	7.7	2	6	248	0.00	30.232 
21:15	19.5	19.5	19.5	59	7.5	2	5	270	0.00	30.241 
21:20	19.5	19.5	19.5	59	7.5	2	5	270	0.00	30.241 
21:25	19.4	19.4	19.4	59	7.4	1	5	270	0.00	30.241 
21:30	19.2	19.2	19.2	60	7.6	1	5	270	0.00	30.251 
21:35	19.2	19.2	19.2	60	7.6	1	3	270	0.00	30.251 
21:40	19.2	19.2	19.2	61	8.0	2	3	270	0.00	30.251 
21:45	19.2	19.2	19.2	61	8.0	2	5	270	0.00	30.268 
21:50	19.1	19.1	19.1	61	7.9	2	6	270	0.00	30.268 
21:55	19.1	19.1	19.1	62	8.3	1	4	270	0.00	30.268 
22:00	18.9	18.9	18.9	62	8.1	2	5	248	0.00	30.276 
22:05	18.9	18.9	18.9	62	8.1	2	4	270	0.00	30.276 
22:10	18.8	18.8	18.8	62	8.0	2	7	248	0.00	30.276 
22:15	18.8	18.8	18.8	63	8.3	2	5	248	0.00	30.276 
22:20	18.6	18.6	18.6	63	8.1	2	4	270	0.00	30.276 
22:25	18.4	18.4	18.4	63	7.9	1	6	270	0.00	30.276 
22:30	18.3	18.3	18.3	63	7.8	1	4	248	0.00	30.287 
22:35	18.3	18.3	18.3	63	7.8	2	4	270	0.00	30.287 
22:40	18.1	18.1	18.1	62	7.3	1	6	270	0.00	30.287 
22:45	18.1	18.1	18.1	62	7.3	2	4	248	0.00	30.283 
22:50	18.1	18.1	18.1	60	6.6	2	5	248	0.00	30.283 
22:55	18.0	18.0	18.0	59	6.1	1	4	248	0.00	30.283 
23:00	18.0	18.0	18.0	59	6.1	1	5	248	0.00	30.289 
23:05	18.0	18.0	18.0	58	5.7	1	5	248	0.00	30.289 
23:10	18.0	18.0	18.0	58	5.7	1	3	270	0.00	30.289 
23:15	17.8	17.8	17.8	57	5.2	1	3	270	0.00	30.280 
23:20	17.8	17.8	17.8	56	4.8	2	5	270	0.00	30.280 
23:25	17.7	17.7	17.7	55	4.3	2	4	248	0.00	30.280 
23:30	17.7	17.7	17.7	55	4.3	2	4	270	0.00	30.288 
23:35	17.7	17.7	17.7	54	3.9	1	4	270	0.00	30.288 
23:40	17.5	17.5	17.5	54	3.7	1	3	270	0.00	30.288 
23:45	17.5	17.5	17.5	55	4.1	1	4	270	0.00	30.294 
23:50	17.3	17.3	17.3	55	3.9	1	3	248	0.00	30.294 
23:55	17.2	17.2	17.2	55	3.8	1	4	248	0.00	30.294 

CoCoRaHS
IN-AL-39
A2 Web Hosting
Creative Commons License
GoDaddy
search engine by freefind advanced

loaded 2018-11-21 00:36:55 • last modified 2010-11-18 10:43:29
Privacy PolicyDisclaimer
• wx.awcolley.com is powered by PmWiki v.2002016 •
• all content (unless otherwise noted) © 2018 A W Colley